12XS weather

Mc Croskey Field
Butlerville, Arkansas, United States

Public forecast

Using degrees Fahrenheit for public forecast. Weather courtesy of forecast.io.

METAR (pilot weather report)

Closest report is Little Rock Air Force Base, 15.5 nm (28.8 km) W. Retrieved 2019/07/21 07:56 UTC (47 minutes ago):

KLRF 210756Z AUTO 00000KT 10SM CLR 25/23 A2995 RMK AO2 SLP141 T02450234

TAF (pilot weather forecast)

Forecast is more than 6 hours old.

Closest forecast is Little Rock Air Force Base, 15.5 nm (28.8 km) W. Retrieved 2019/07/20 23:03 UTC (10 hours ago):

TAF TAF KLRF 202300Z 2023/2205 VRB06KT 9999 SCT045 QNH2989INS TX36/2023Z TN25/2111Z